createdAt,value
2022-10-23T00:00:34.677Z,71.27
2022-10-23T00:03:45.244Z,71.16
2022-10-23T00:06:33.274Z,71.12
2022-10-23T00:09:09.116Z,71.07
2022-10-23T00:11:51.023Z,71.21
2022-10-23T00:15:00.583Z,71.25
2022-10-23T00:17:41.581Z,71.13
2022-10-23T00:20:22.520Z,71.14
2022-10-23T00:22:52.973Z,70.96
2022-10-23T00:25:26.962Z,71.02
2022-10-23T00:27:55.912Z,70.98
2022-10-23T00:43:36.223Z,71.43
2022-10-23T00:46:04.803Z,71.31
2022-10-23T00:48:32.883Z,71.45
2022-10-23T00:51:01.991Z,71.04
2022-10-23T00:53:30.292Z,70.97
2022-10-23T00:56:00.110Z,70.99
2022-10-23T00:58:33.589Z,71.08
2022-10-23T01:01:05.179Z,70.98
2022-10-23T01:06:27.736Z,70.81
2022-10-23T01:09:02.429Z,70.85
2022-10-23T01:11:42.507Z,70.73
2022-10-23T01:14:17.339Z,70.74
2022-10-23T01:16:57.177Z,70.85
2022-10-23T01:20:46.199Z,70.66
2022-10-23T01:23:11.661Z,70.84
2022-10-23T01:25:52.360Z,70.74
2022-10-23T01:28:29.986Z,70.93
2022-10-23T01:30:59.578Z,70.94
2022-10-23T01:33:29.988Z,70.95
2022-10-23T01:36:07.598Z,71.26
2022-10-23T01:38:44.409Z,71.66
2022-10-23T01:41:20.804Z,72.24
2022-10-23T01:44:01.546Z,71.97
2022-10-23T01:46:31.709Z,71.74
2022-10-23T01:49:01.783Z,72.91
2022-10-23T01:51:32.787Z,72.64
2022-10-23T01:54:06.198Z,73.30
2022-10-23T01:56:40.915Z,73.14
2022-10-23T01:59:13.790Z,73.25
2022-10-23T02:01:43.481Z,73.74
2022-10-23T02:04:13.786Z,73.55
2022-10-23T02:06:46.659Z,73.98
2022-10-23T02:09:15.888Z,74.41
2022-10-23T02:11:54.441Z,74.36
2022-10-23T02:14:28.247Z,74.67
2022-10-23T02:17:01.447Z,74.60
2022-10-23T02:19:35.473Z,74.80
2022-10-23T02:22:21.284Z,74.35
2022-10-23T02:29:10.286Z,74.69
2022-10-23T02:36:12.104Z,75.50
2022-10-23T02:39:01.521Z,75.45
2022-10-23T02:42:02.967Z,75.51
2022-10-23T02:44:51.675Z,76.05
2022-10-23T02:47:56.968Z,75.69
2022-10-23T02:58:08.989Z,76.27
2022-10-23T03:08:20.448Z,76.20
2022-10-23T03:12:11.507Z,76.08
2022-10-23T03:14:44.457Z,76.07
2022-10-23T03:17:51.155Z,76.26
2022-10-23T03:20:30.459Z,76.73
2022-10-23T03:23:19.594Z,76.73
2022-10-23T03:25:52.214Z,76.74
2022-10-23T03:28:20.674Z,77.35
2022-10-23T03:31:11.318Z,77.31
2022-10-23T03:33:59.909Z,77.12
2022-10-23T03:36:29.844Z,77.37
2022-10-23T03:39:00.386Z,77.73
2022-10-23T03:41:29.162Z,78.25
2022-10-23T03:43:57.652Z,78.01
2022-10-23T03:46:32.345Z,77.38
2022-10-23T03:49:06.261Z,77.32
2022-10-23T03:51:42.759Z,77.58
2022-10-23T03:54:17.603Z,77.75
2022-10-23T03:56:53.726Z,77.76
2022-10-23T03:59:30.080Z,77.46
2022-10-23T04:02:03.855Z,77.52
2022-10-23T04:04:45.777Z,77.86
2022-10-23T04:07:17.545Z,77.51
2022-10-23T04:09:46.056Z,77.84
2022-10-23T04:12:15.107Z,77.69
2022-10-23T04:14:45.243Z,77.86
2022-10-23T04:17:14.233Z,77.65
2022-10-23T04:19:42.615Z,77.79
2022-10-23T04:22:12.983Z,78.12
2022-10-23T04:24:47.892Z,78.40
2022-10-23T04:27:16.760Z,78.65
2022-10-23T04:29:45.436Z,78.12
2022-10-23T04:32:17.047Z,77.98
2022-10-23T04:34:45.712Z,77.66
2022-10-23T04:37:14.612Z,77.99
2022-10-23T04:39:46.497Z,77.98
2022-10-23T04:42:15.853Z,77.93
2022-10-23T04:44:43.949Z,77.48
2022-10-23T04:47:12.094Z,77.48
2022-10-23T04:49:40.240Z,77.41
2022-10-23T04:52:12.417Z,77.65
2022-10-23T04:54:40.747Z,77.66
2022-10-23T04:57:11.120Z,77.91
2022-10-23T04:59:40.219Z,78.68
2022-10-23T05:02:09.689Z,78.58
2022-10-23T05:04:38.386Z,78.04
2022-10-23T05:07:07.199Z,77.70
2022-10-23T05:09:36.679Z,77.16
2022-10-23T05:12:05.749Z,76.92
2022-10-23T05:14:35.972Z,75.84
2022-10-23T05:17:09.901Z,76.24
2022-10-23T05:19:40.471Z,76.09
2022-10-23T05:22:08.716Z,75.74
2022-10-23T05:24:38.700Z,75.63
2022-10-23T05:27:07.451Z,75.08
2022-10-23T05:29:37.807Z,74.94
2022-10-23T05:32:10.484Z,74.81
2022-10-23T05:34:40.668Z,74.85
2022-10-23T05:37:10.863Z,74.62
2022-10-23T05:39:39.425Z,73.82
2022-10-23T05:42:07.956Z,73.84
2022-10-23T05:44:39.434Z,73.92
2022-10-23T05:47:09.113Z,73.70
2022-10-23T05:49:38.438Z,73.25
2022-10-23T05:52:06.853Z,72.70
2022-10-23T05:54:35.135Z,72.96
2022-10-23T05:57:04.120Z,72.51
2022-10-23T05:59:32.800Z,72.48
2022-10-23T06:02:04.433Z,72.50
2022-10-23T06:04:33.296Z,72.15
2022-10-23T06:07:02.005Z,72.17
2022-10-23T06:09:30.670Z,71.84
2022-10-23T06:11:59.974Z,71.49
2022-10-23T06:14:28.557Z,71.51
2022-10-23T06:16:57.067Z,71.24
2022-10-23T06:19:27.459Z,71.33
2022-10-23T06:21:55.905Z,70.77
2022-10-23T06:24:24.250Z,70.76
2022-10-23T06:26:52.543Z,70.58
2022-10-23T06:29:21.697Z,70.43
2022-10-23T06:31:50.698Z,70.00
2022-10-23T06:34:18.832Z,68.99
2022-10-23T06:36:49.205Z,68.77
2022-10-23T06:42:07.528Z,69.56
2022-10-23T06:44:35.764Z,69.39
2022-10-23T06:47:03.827Z,68.54
2022-10-23T06:49:32.191Z,67.88
2022-10-23T06:54:47.544Z,67.53
2022-10-23T06:57:16.273Z,67.61
2022-10-23T06:59:44.619Z,67.62
2022-10-23T07:02:12.675Z,67.36
2022-10-23T07:04:41.895Z,67.01
2022-10-23T07:07:10.431Z,67.13
2022-10-23T07:09:39.101Z,66.91
2022-10-23T07:12:09.460Z,67.16
2022-10-23T07:14:37.688Z,67.19
2022-10-23T07:17:06.217Z,66.87
2022-10-23T07:19:35.322Z,66.20
2022-10-23T07:22:03.920Z,65.52
2022-10-23T07:24:37.423Z,66.02
2022-10-23T07:27:06.427Z,66.33
2022-10-23T07:29:37.181Z,66.31
2022-10-23T07:32:06.238Z,66.14
2022-10-23T07:34:39.072Z,65.89
2022-10-23T07:37:08.222Z,65.68
2022-10-23T07:39:37.099Z,65.13
2022-10-23T07:42:06.585Z,65.76
2022-10-23T07:44:36.823Z,65.97
2022-10-23T07:47:04.976Z,65.81
2022-10-23T07:49:33.314Z,66.16
2022-10-23T07:54:30.495Z,66.18
2022-10-23T07:57:00.600Z,66.34
2022-10-23T07:59:28.638Z,66.01
2022-10-23T08:01:58.603Z,66.31
2022-10-23T08:04:29.043Z,65.90
2022-10-23T08:06:57.332Z,65.75
2022-10-23T08:09:25.935Z,65.71
2022-10-23T08:11:54.578Z,65.80
2022-10-23T08:14:22.817Z,65.82
2022-10-23T08:16:51.730Z,65.80
2022-10-23T08:19:21.840Z,66.23
2022-10-23T08:21:50.233Z,65.78
2022-10-23T08:24:18.598Z,66.19
2022-10-23T08:26:46.629Z,66.07
2022-10-23T08:29:15.009Z,66.20
2022-10-23T08:31:43.220Z,66.31
2022-10-23T08:34:11.411Z,66.48
2022-10-23T08:36:41.308Z,66.14
2022-10-23T08:39:09.808Z,66.33
2022-10-23T08:41:39.012Z,66.43
2022-10-23T08:44:11.437Z,66.72
2022-10-23T08:46:43.065Z,66.54
2022-10-23T08:49:20.124Z,66.74
2022-10-23T08:51:51.616Z,66.81
2022-10-23T08:54:22.795Z,66.78
2022-10-23T08:56:52.434Z,66.83
2022-10-23T08:59:26.537Z,66.77
2022-10-23T09:01:58.084Z,66.36
2022-10-23T09:04:26.945Z,65.99
2022-10-23T09:07:00.991Z,66.35
2022-10-23T09:09:46.928Z,66.15
2022-10-23T09:12:17.989Z,66.26
2022-10-23T09:15:04.313Z,66.20
2022-10-23T09:17:33.983Z,66.17
2022-10-23T09:20:07.425Z,65.97
2022-10-23T09:22:37.087Z,65.90
2022-10-23T09:25:09.740Z,65.82
2022-10-23T09:27:38.416Z,65.62
2022-10-23T09:30:07.536Z,65.37
2022-10-23T09:32:40.055Z,65.62
2022-10-23T09:35:08.958Z,65.71
2022-10-23T09:37:47.948Z,65.32
2022-10-23T09:40:18.943Z,65.67
2022-10-23T09:42:57.309Z,65.75
2022-10-23T09:45:26.972Z,65.88
2022-10-23T09:48:04.903Z,65.81
2022-10-23T09:50:33.976Z,66.05
2022-10-23T09:53:04.101Z,66.33
2022-10-23T09:55:32.878Z,66.47
2022-10-23T09:58:01.573Z,66.84
2022-10-23T10:00:29.784Z,67.09
2022-10-23T10:02:59.491Z,66.89
2022-10-23T10:05:29.464Z,67.11
2022-10-23T10:07:59.913Z,67.63
2022-10-23T10:10:36.288Z,67.96
2022-10-23T10:13:09.981Z,68.51
2022-10-23T10:15:45.864Z,68.30
2022-10-23T10:18:17.045Z,68.89
2022-10-23T10:20:52.181Z,69.11
2022-10-23T10:23:29.389Z,69.21
2022-10-23T10:26:03.388Z,69.04
2022-10-23T10:28:46.684Z,69.15
2022-10-23T10:31:21.118Z,69.66
2022-10-23T10:33:57.875Z,70.04
2022-10-23T10:36:39.525Z,69.66
2022-10-23T10:39:13.339Z,69.46
2022-10-23T10:41:53.044Z,69.72
2022-10-23T10:44:51.558Z,69.70
2022-10-23T10:47:23.396Z,69.50
2022-10-23T10:49:56.890Z,69.54
2022-10-23T10:52:28.281Z,69.48
2022-10-23T10:55:04.672Z,69.44
2022-10-23T10:57:36.260Z,69.74
2022-10-23T11:03:06.291Z,70.21
2022-10-23T11:05:37.389Z,70.12
2022-10-23T11:08:08.915Z,69.95
2022-10-23T11:10:40.210Z,70.52
2022-10-23T11:13:20.129Z,70.20
2022-10-23T11:15:48.705Z,70.43
2022-10-23T11:18:21.533Z,70.45
2022-10-23T11:20:59.902Z,70.36
2022-10-23T11:23:39.283Z,70.06
2022-10-23T11:26:16.212Z,70.00
2022-10-23T11:28:55.931Z,70.45
2022-10-23T11:31:30.688Z,70.36
2022-10-23T11:34:13.805Z,70.55
2022-10-23T11:36:47.544Z,70.22
2022-10-23T11:39:20.936Z,70.32
2022-10-23T11:41:53.489Z,70.40
2022-10-23T11:44:42.401Z,70.82
2022-10-23T11:47:36.360Z,70.83
2022-10-23T11:50:27.326Z,70.75
2022-10-23T11:53:13.117Z,70.72
2022-10-23T11:55:42.312Z,70.63
2022-10-23T11:58:14.440Z,71.54
2022-10-23T12:00:53.140Z,71.87
2022-10-23T12:03:23.574Z,72.59
2022-10-23T12:05:58.191Z,72.37
2022-10-23T12:08:28.864Z,72.49
2022-10-23T12:10:57.235Z,73.22
2022-10-23T12:13:31.057Z,73.91
2022-10-23T12:18:53.224Z,74.09
2022-10-23T12:21:22.656Z,74.15
2022-10-23T12:24:05.757Z,73.92
2022-10-23T12:26:44.205Z,74.05
2022-10-23T12:29:19.877Z,74.18
2022-10-23T12:31:54.440Z,74.03
2022-10-23T12:34:33.849Z,73.70
2022-10-23T12:37:10.944Z,74.56
2022-10-23T12:39:40.396Z,74.19
2022-10-23T12:42:17.276Z,73.97
2022-10-23T12:44:45.696Z,74.38
2022-10-23T12:47:16.768Z,74.39
2022-10-23T12:49:51.360Z,74.40
2022-10-23T12:52:26.293Z,73.80
2022-10-23T12:54:54.764Z,74.16
2022-10-23T12:57:24.066Z,74.21
2022-10-23T12:59:53.635Z,74.04
2022-10-23T13:02:26.588Z,73.87
2022-10-23T13:04:57.676Z,73.99
2022-10-23T13:07:28.291Z,74.14
2022-10-23T13:09:57.080Z,73.62
2022-10-23T13:12:27.473Z,73.58
2022-10-23T13:14:57.849Z,73.91
2022-10-23T13:17:35.812Z,74.18
2022-10-23T13:20:12.442Z,74.21
2022-10-23T13:22:42.160Z,74.01
2022-10-23T13:25:23.759Z,74.36
2022-10-23T13:27:52.155Z,74.29
2022-10-23T13:30:29.950Z,74.00
2022-10-23T13:32:58.003Z,74.24
2022-10-23T13:35:28.150Z,74.12
2022-10-23T13:37:56.323Z,74.30
2022-10-23T13:40:26.274Z,74.22
2022-10-23T13:42:55.410Z,74.14
2022-10-23T13:45:25.583Z,74.15
2022-10-23T13:47:53.679Z,74.02
2022-10-23T13:50:22.182Z,74.07
2022-10-23T13:52:53.073Z,74.17
2022-10-23T13:55:22.834Z,73.99
2022-10-23T13:57:51.106Z,74.04
2022-10-23T14:00:20.125Z,74.30
2022-10-23T14:02:48.543Z,74.74
2022-10-23T14:05:17.497Z,74.42
2022-10-23T14:07:45.761Z,74.67
2022-10-23T14:10:15.878Z,74.72
2022-10-23T14:12:45.081Z,74.81
2022-10-23T14:15:14.076Z,74.89
2022-10-23T14:17:42.210Z,75.44
2022-10-23T14:20:11.832Z,75.11
2022-10-23T14:22:40.286Z,75.23
2022-10-23T14:25:08.645Z,75.17
2022-10-23T14:27:38.795Z,76.11
2022-10-23T14:30:07.436Z,76.12
2022-10-23T14:32:36.179Z,75.94
2022-10-23T14:35:04.591Z,75.93
2022-10-23T14:37:33.425Z,76.10
2022-10-23T14:40:02.356Z,76.31
2022-10-23T14:42:34.467Z,76.34
2022-10-23T14:45:04.989Z,76.34
2022-10-23T14:47:33.248Z,77.04
2022-10-23T14:50:01.758Z,76.84
2022-10-23T14:52:29.969Z,76.97
2022-10-23T14:54:58.115Z,76.78
2022-10-23T14:57:26.499Z,77.07
2022-10-23T14:59:54.874Z,77.02
2022-10-23T15:02:25.226Z,77.03
2022-10-23T15:04:53.592Z,76.88
2022-10-23T15:07:21.798Z,76.78
2022-10-23T15:09:52.305Z,76.76
2022-10-23T15:12:21.218Z,76.71
2022-10-23T15:14:49.492Z,76.97
2022-10-23T15:17:18.028Z,77.06
2022-10-23T15:19:47.646Z,77.30
2022-10-23T15:22:19.707Z,77.50
2022-10-23T15:24:48.146Z,77.31
2022-10-23T15:27:18.910Z,77.53
2022-10-23T15:29:51.418Z,77.08
2022-10-23T15:32:21.600Z,77.48
2022-10-23T15:34:52.624Z,77.30
2022-10-23T15:37:20.833Z,77.50
2022-10-23T15:39:49.381Z,77.79
2022-10-23T15:42:19.067Z,77.56
2022-10-23T15:44:47.487Z,77.79
2022-10-23T15:47:15.655Z,77.85
2022-10-23T15:49:44.144Z,77.70
2022-10-23T15:52:13.862Z,77.93
2022-10-23T15:54:42.251Z,77.83
2022-10-23T15:57:12.183Z,77.89
2022-10-23T15:59:40.688Z,78.18
2022-10-23T16:02:09.685Z,78.47
2022-10-23T16:04:38.380Z,78.39
2022-10-23T16:07:07.669Z,78.37
2022-10-23T16:09:37.884Z,78.65
2022-10-23T16:12:07.226Z,78.69
2022-10-23T16:14:35.707Z,78.40
2022-10-23T16:17:04.718Z,78.41
2022-10-23T16:19:32.844Z,78.64
2022-10-23T16:22:01.581Z,78.61
2022-10-23T16:24:30.261Z,78.44
2022-10-23T16:27:00.723Z,78.26
2022-10-23T16:29:29.908Z,78.36
2022-10-23T16:31:59.952Z,78.52
2022-10-23T16:34:28.530Z,78.72
2022-10-23T16:36:58.291Z,78.79
2022-10-23T16:39:27.305Z,78.78
2022-10-23T16:41:56.194Z,78.43
2022-10-23T16:44:27.172Z,78.44
2022-10-23T16:47:00.373Z,78.44
2022-10-23T16:49:32.811Z,78.69
2022-10-23T16:52:06.319Z,78.61
2022-10-23T16:54:36.291Z,78.45
2022-10-23T16:57:07.594Z,78.60
2022-10-23T16:59:42.727Z,78.43
2022-10-23T17:02:12.351Z,78.52
2022-10-23T17:04:41.530Z,78.79
2022-10-23T17:07:13.290Z,78.53
2022-10-23T17:09:42.680Z,78.73
2022-10-23T17:12:29.688Z,78.59
2022-10-23T17:15:00.777Z,78.67
2022-10-23T17:17:31.368Z,78.77
2022-10-23T17:20:06.464Z,78.83
2022-10-23T17:22:40.893Z,78.72
2022-10-23T17:25:14.507Z,79.03
2022-10-23T17:27:48.811Z,78.50
2022-10-23T17:30:21.733Z,79.00
2022-10-23T17:32:50.083Z,78.85
2022-10-23T17:35:21.094Z,79.11
2022-10-23T17:37:56.774Z,79.05
2022-10-23T17:40:27.521Z,79.16
2022-10-23T17:42:56.693Z,79.24
2022-10-23T17:45:26.574Z,79.22
2022-10-23T17:47:55.384Z,79.35
2022-10-23T17:50:23.842Z,79.14
2022-10-23T17:52:54.756Z,79.42
2022-10-23T17:55:22.983Z,79.40
2022-10-23T17:57:58.319Z,79.44
2022-10-23T18:00:30.133Z,79.36
2022-10-23T18:02:58.694Z,79.51
2022-10-23T18:05:27.915Z,79.74
2022-10-23T18:11:09.215Z,80.11
2022-10-23T18:13:39.055Z,80.11
2022-10-23T18:16:11.920Z,80.19
2022-10-23T18:18:40.491Z,80.13
2022-10-23T18:21:09.142Z,79.82
2022-10-23T18:23:38.298Z,80.39
2022-10-23T18:26:06.736Z,79.93
2022-10-23T18:28:35.865Z,80.00
2022-10-23T18:31:04.399Z,80.17
2022-10-23T18:33:35.215Z,80.23
2022-10-23T18:36:03.674Z,80.35
2022-10-23T18:38:49.668Z,80.55
2022-10-23T18:41:32.473Z,80.13
2022-10-23T18:44:00.877Z,80.12
2022-10-23T18:46:29.172Z,80.48
2022-10-23T18:49:00.760Z,80.57
2022-10-23T18:51:33.782Z,80.14
2022-10-23T18:54:03.135Z,80.45
2022-10-23T18:56:32.095Z,80.46
2022-10-23T18:59:02.395Z,80.70
2022-10-23T19:01:32.377Z,80.50
2022-10-23T19:04:05.225Z,80.51
2022-10-23T19:06:37.179Z,80.41
2022-10-23T19:09:07.683Z,80.78
2022-10-23T19:11:36.115Z,80.75
2022-10-23T19:14:04.972Z,80.56
2022-10-23T19:16:36.370Z,80.55
2022-10-23T19:19:08.694Z,80.40
2022-10-23T19:21:38.847Z,80.31
2022-10-23T19:24:11.328Z,80.86
2022-10-23T19:26:41.755Z,80.68
2022-10-23T19:29:11.739Z,80.77
2022-10-23T19:31:43.250Z,80.76
2022-10-23T19:34:13.081Z,80.96
2022-10-23T19:36:41.149Z,81.00
2022-10-23T19:39:09.197Z,81.46
2022-10-23T19:41:37.357Z,81.73
2022-10-23T19:44:05.566Z,81.36
2022-10-23T19:46:34.975Z,81.46
2022-10-23T19:49:03.565Z,81.62
2022-10-23T19:51:33.652Z,81.85
2022-10-23T19:54:02.589Z,81.98
2022-10-23T19:56:32.567Z,81.63
2022-10-23T19:59:00.986Z,81.70
2022-10-23T20:01:29.263Z,81.49
2022-10-23T20:03:59.576Z,82.02
2022-10-23T20:06:28.887Z,81.75
2022-10-23T20:08:59.112Z,81.64
2022-10-23T20:11:29.531Z,81.44
2022-10-23T20:13:58.621Z,81.92
2022-10-23T20:16:27.922Z,81.77
2022-10-23T20:18:56.728Z,81.76
2022-10-23T20:21:25.989Z,81.82
2022-10-23T20:23:54.419Z,81.88
2022-10-23T20:26:24.885Z,81.91
2022-10-23T20:28:54.614Z,82.13
2022-10-23T20:31:25.893Z,82.03
2022-10-23T20:33:55.195Z,82.49
2022-10-23T20:36:24.875Z,82.50
2022-10-23T20:38:53.211Z,82.06
2022-10-23T20:41:22.076Z,81.98
2022-10-23T20:43:53.274Z,81.36
2022-10-23T20:46:21.308Z,81.22
2022-10-23T20:48:50.268Z,81.86
2022-10-23T20:51:19.564Z,81.86
2022-10-23T20:53:48.184Z,81.33
2022-10-23T20:56:17.800Z,81.42
2022-10-23T20:58:48.324Z,81.49
2022-10-23T21:01:19.860Z,81.34
2022-10-23T21:04:13.185Z,80.99
2022-10-23T21:07:08.220Z,80.98
2022-10-23T21:09:32.903Z,80.59
2022-10-23T21:12:06.988Z,81.19
2022-10-23T21:14:35.235Z,80.57
2022-10-23T21:17:04.924Z,80.78
2022-10-23T21:19:33.243Z,80.76
2022-10-23T21:22:01.347Z,80.99
2022-10-23T21:24:29.491Z,80.66
2022-10-23T21:26:57.869Z,80.16
2022-10-23T21:29:26.090Z,80.67
2022-10-23T21:31:56.556Z,80.73
2022-10-23T21:34:27.083Z,80.69
2022-10-23T21:37:14.182Z,80.45
2022-10-23T21:39:43.196Z,80.36
2022-10-23T21:42:11.607Z,80.44
2022-10-23T21:44:39.843Z,80.68
2022-10-23T21:47:08.214Z,80.67
2022-10-23T21:49:38.246Z,80.68
2022-10-23T21:52:06.945Z,80.65
2022-10-23T21:54:35.374Z,80.71
2022-10-23T21:57:04.724Z,80.78
2022-10-23T21:59:35.871Z,80.55
2022-10-23T22:02:04.912Z,80.39
2022-10-23T22:04:33.514Z,80.39
2022-10-23T22:07:03.872Z,81.17
2022-10-23T22:09:32.475Z,80.81
2022-10-23T22:12:01.238Z,80.48
2022-10-23T22:14:29.466Z,80.68
2022-10-23T22:16:57.587Z,80.91
2022-10-23T22:19:25.654Z,80.75
2022-10-23T22:21:55.373Z,80.98
2022-10-23T22:24:24.999Z,80.72
2022-10-23T22:26:54.705Z,80.85
2022-10-23T22:29:24.872Z,80.97
2022-10-23T22:31:53.540Z,81.53
2022-10-23T22:37:11.652Z,80.81
2022-10-23T22:39:41.640Z,80.69
2022-10-23T22:42:10.340Z,81.04
2022-10-23T22:44:38.359Z,80.71
2022-10-23T22:47:06.584Z,80.64
2022-10-23T22:49:34.634Z,81.07
2022-10-23T22:52:02.876Z,80.79
2022-10-23T22:54:31.718Z,80.81
2022-10-23T22:57:01.699Z,81.17
2022-10-23T22:59:29.785Z,81.73
2022-10-23T23:01:57.787Z,81.20
2022-10-23T23:04:37.790Z,81.33
2022-10-23T23:07:06.477Z,81.13
2022-10-23T23:09:37.379Z,80.76
2022-10-23T23:12:06.981Z,80.84
2022-10-23T23:14:35.226Z,80.50
2022-10-23T23:17:03.330Z,80.61
2022-10-23T23:19:31.997Z,80.95
2022-10-23T23:22:00.599Z,80.55
2022-10-23T23:24:28.765Z,80.28
2022-10-23T23:26:56.756Z,80.45
2022-10-23T23:29:27.316Z,80.43
2022-10-23T23:31:55.577Z,80.25
2022-10-23T23:34:23.740Z,80.19
2022-10-23T23:36:52.731Z,79.96
2022-10-23T23:39:20.949Z,80.13
2022-10-23T23:41:49.239Z,79.96
2022-10-23T23:44:17.844Z,79.92
2022-10-23T23:46:47.915Z,79.82
2022-10-23T23:49:16.525Z,79.87
2022-10-23T23:51:44.791Z,80.15
2022-10-23T23:54:13.058Z,79.62
2022-10-23T23:56:41.495Z,79.56
2022-10-23T23:59:09.629Z,79.38
